createdAt,value
2018-09-19T00:01:01.625Z,21.30
2018-09-19T00:03:29.747Z,21.30
2018-09-19T00:05:58.016Z,21.20
2018-09-19T00:08:26.131Z,21.20
2018-09-19T00:10:54.294Z,21.10
2018-09-19T00:13:22.396Z,21.10
2018-09-19T00:15:50.496Z,21.00
2018-09-19T00:18:18.627Z,20.90
2018-09-19T00:20:46.723Z,20.90
2018-09-19T00:23:14.839Z,20.90
2018-09-19T00:25:42.952Z,20.90
2018-09-19T00:28:11.084Z,20.90
2018-09-19T00:30:39.249Z,21.00
2018-09-19T00:33:07.361Z,21.10
2018-09-19T00:35:35.502Z,21.10
2018-09-19T00:38:03.612Z,21.20
2018-09-19T00:40:31.737Z,21.20
2018-09-19T00:42:59.832Z,21.30
2018-09-19T00:45:27.939Z,21.20
2018-09-19T00:47:56.057Z,21.20
2018-09-19T00:50:24.207Z,21.10
2018-09-19T00:52:52.342Z,21.00
2018-09-19T00:55:20.517Z,20.90
2018-09-19T00:57:48.599Z,20.80
2018-09-19T01:00:16.712Z,20.70
2018-09-19T01:02:44.840Z,20.70
2018-09-19T01:05:12.952Z,20.60
2018-09-19T01:07:41.066Z,20.50
2018-09-19T01:10:09.164Z,20.50
2018-09-19T01:12:55.805Z,20.40
2018-09-19T01:15:24.193Z,20.30
2018-09-19T01:17:52.324Z,20.20
2018-09-19T01:20:20.407Z,20.10
2018-09-19T01:22:48.538Z,20.00
2018-09-19T01:25:16.646Z,20.00
2018-09-19T01:27:44.834Z,19.90
2018-09-19T01:30:12.948Z,19.90
2018-09-19T01:32:41.084Z,19.90
2018-09-19T01:35:09.205Z,19.90
2018-09-19T01:37:37.375Z,19.90
2018-09-19T01:40:05.497Z,19.80
2018-09-19T01:42:33.616Z,19.80
2018-09-19T01:45:01.766Z,19.70
2018-09-19T01:47:29.869Z,19.60
2018-09-19T01:49:58.088Z,19.60
2018-09-19T01:52:26.198Z,19.60
2018-09-19T01:54:54.320Z,19.60
2018-09-19T01:57:22.427Z,19.50
2018-09-19T01:59:50.529Z,19.40
2018-09-19T02:02:18.656Z,19.30
2018-09-19T02:04:46.760Z,19.30
2018-09-19T02:07:14.896Z,19.20
2018-09-19T02:09:43.012Z,19.20
2018-09-19T02:12:11.144Z,19.10
2018-09-19T02:14:39.253Z,19.10
2018-09-19T02:17:07.368Z,18.90
2018-09-19T02:19:35.488Z,18.90
2018-09-19T02:22:03.652Z,18.90
2018-09-19T02:24:31.781Z,18.80
2018-09-19T02:26:59.940Z,18.70
2018-09-19T02:29:28.098Z,18.70
2018-09-19T02:31:56.152Z,18.70
2018-09-19T02:34:24.278Z,18.70
2018-09-19T02:36:52.380Z,18.60
2018-09-19T02:39:20.513Z,18.60
2018-09-19T02:41:48.645Z,18.60
2018-09-19T02:44:16.760Z,18.50
2018-09-19T02:46:44.878Z,18.50
2018-09-19T02:49:12.991Z,18.50
2018-09-19T02:51:41.091Z,18.40
2018-09-19T02:54:09.210Z,18.40
2018-09-19T02:56:37.315Z,18.30
2018-09-19T02:59:05.415Z,18.30
2018-09-19T03:01:33.553Z,18.20
2018-09-19T03:04:02.067Z,18.20
2018-09-19T03:06:30.180Z,18.10
2018-09-19T03:08:58.284Z,18.10
2018-09-19T03:11:26.476Z,18.00
2018-09-19T03:13:54.601Z,18.00
2018-09-19T03:16:22.843Z,17.80
2018-09-19T03:18:50.966Z,17.70
2018-09-19T03:21:19.072Z,17.60
2018-09-19T03:23:47.208Z,17.50
2018-09-19T03:26:15.735Z,17.50
2018-09-19T03:28:43.925Z,17.50
2018-09-19T03:31:12.061Z,17.50
2018-09-19T03:33:40.246Z,17.50
2018-09-19T03:36:08.365Z,17.50
2018-09-19T03:38:36.477Z,17.60
2018-09-19T03:41:04.639Z,17.60
2018-09-19T03:43:32.727Z,17.60
2018-09-19T03:46:00.848Z,17.60
2018-09-19T03:48:28.959Z,17.60
2018-09-19T03:50:57.069Z,17.50
2018-09-19T03:53:25.179Z,17.50
2018-09-19T03:55:53.293Z,17.50
2018-09-19T03:58:21.450Z,17.50
2018-09-19T04:00:49.506Z,17.50
2018-09-19T04:03:17.595Z,17.50
2018-09-19T04:05:45.775Z,17.50
2018-09-19T04:08:13.872Z,17.50
2018-09-19T04:10:42.017Z,17.40
2018-09-19T04:13:10.172Z,17.40
2018-09-19T04:15:38.288Z,17.30
2018-09-19T04:18:06.416Z,17.20
2018-09-19T04:20:34.521Z,17.30
2018-09-19T04:23:02.656Z,17.30
2018-09-19T04:25:30.811Z,17.20
2018-09-19T04:27:58.933Z,17.20
2018-09-19T04:30:27.132Z,17.20
2018-09-19T04:32:55.253Z,17.10
2018-09-19T04:35:23.444Z,17.20
2018-09-19T04:37:51.557Z,17.10
2018-09-19T04:40:19.703Z,17.00
2018-09-19T04:42:47.832Z,17.00
2018-09-19T04:45:16.009Z,17.00
2018-09-19T04:47:44.712Z,17.10
2018-09-19T04:50:12.856Z,17.10
2018-09-19T04:52:40.975Z,17.00
2018-09-19T04:55:09.107Z,17.00
2018-09-19T04:57:37.231Z,17.00
2018-09-19T05:00:05.481Z,16.90
2018-09-19T05:02:33.602Z,16.90
2018-09-19T05:05:01.744Z,16.90
2018-09-19T05:07:29.875Z,16.90
2018-09-19T05:09:58.295Z,16.80
2018-09-19T05:12:26.476Z,16.70
2018-09-19T05:14:54.580Z,16.70
2018-09-19T05:17:22.709Z,16.80
2018-09-19T05:19:50.913Z,16.70
2018-09-19T05:22:19.036Z,16.80
2018-09-19T05:24:47.162Z,16.80
2018-09-19T05:27:15.875Z,16.80
2018-09-19T05:29:44.372Z,16.80
2018-09-19T05:32:12.589Z,16.90
2018-09-19T05:34:40.688Z,16.80
2018-09-19T05:37:08.844Z,16.80
2018-09-19T05:39:36.948Z,16.90
2018-09-19T05:42:05.429Z,16.80
2018-09-19T05:44:33.544Z,16.90
2018-09-19T05:47:01.657Z,16.90
2018-09-19T05:49:29.777Z,16.80
2018-09-19T05:51:57.897Z,16.90
2018-09-19T05:54:26.063Z,16.90
2018-09-19T05:56:54.125Z,16.80
2018-09-19T05:59:22.249Z,16.80
2018-09-19T06:01:50.380Z,16.80
2018-09-19T06:04:18.488Z,16.80
2018-09-19T06:06:46.603Z,16.70
2018-09-19T06:09:14.715Z,16.70
2018-09-19T06:11:42.840Z,16.80
2018-09-19T06:14:10.964Z,16.90
2018-09-19T06:16:39.053Z,17.00
2018-09-19T06:19:07.191Z,17.10
2018-09-19T06:21:35.316Z,17.20
2018-09-19T06:24:03.437Z,17.20
2018-09-19T06:26:31.655Z,17.20
2018-09-19T06:28:59.768Z,17.30
2018-09-19T06:31:27.916Z,17.40
2018-09-19T06:33:56.036Z,17.50
2018-09-19T06:36:24.148Z,17.50
2018-09-19T06:38:52.255Z,17.70
2018-09-19T06:41:20.363Z,17.80
2018-09-19T06:43:48.547Z,17.70
2018-09-19T06:46:16.674Z,17.80
2018-09-19T06:48:44.791Z,17.90
2018-09-19T06:51:12.891Z,17.90
2018-09-19T06:53:40.996Z,18.00
2018-09-19T06:56:09.360Z,18.10
2018-09-19T06:58:37.506Z,18.20
2018-09-19T07:01:05.618Z,18.30
2018-09-19T07:03:33.732Z,18.50
2018-09-19T07:06:01.842Z,18.70
2018-09-19T07:08:29.952Z,18.80
2018-09-19T07:10:58.093Z,19.00
2018-09-19T07:13:27.017Z,19.20
2018-09-19T07:15:55.122Z,19.30
2018-09-19T07:18:23.246Z,19.40
2018-09-19T07:20:51.351Z,19.50
2018-09-19T07:23:19.446Z,19.70
2018-09-19T07:25:47.556Z,19.90
2018-09-19T07:28:15.681Z,20.00
2018-09-19T07:30:43.812Z,20.30
2018-09-19T07:33:11.926Z,20.50
2018-09-19T07:35:40.032Z,20.70
2018-09-19T07:38:08.137Z,21.00
2018-09-19T07:40:36.288Z,21.10
2018-09-19T07:43:04.463Z,21.20
2018-09-19T07:45:32.551Z,21.40
2018-09-19T07:48:00.668Z,21.60
2018-09-19T07:50:28.918Z,21.70
2018-09-19T07:52:57.040Z,21.90
2018-09-19T07:55:25.184Z,22.20
2018-09-19T07:57:53.302Z,22.40
2018-09-19T08:00:22.404Z,22.70
2018-09-19T08:02:50.565Z,23.00
2018-09-19T08:05:18.808Z,23.10
2018-09-19T08:07:46.923Z,23.30
2018-09-19T08:10:15.081Z,23.30
2018-09-19T08:12:43.351Z,23.20
2018-09-19T08:15:11.556Z,23.50
2018-09-19T08:17:39.682Z,23.60
2018-09-19T08:20:07.886Z,23.70
2018-09-19T08:22:36.059Z,23.70
2018-09-19T08:25:04.186Z,23.80
2018-09-19T08:27:33.121Z,23.80
2018-09-19T08:30:01.204Z,23.90
2018-09-19T08:32:29.477Z,24.10
2018-09-19T08:34:57.688Z,24.30
2018-09-19T08:37:25.784Z,24.30
2018-09-19T08:39:53.981Z,24.50
2018-09-19T08:42:22.133Z,24.50
2018-09-19T08:44:50.348Z,24.60
2018-09-19T08:47:18.574Z,24.60
2018-09-19T08:49:46.710Z,24.80
2018-09-19T08:52:14.858Z,24.90
2018-09-19T08:54:43.047Z,24.90
2018-09-19T08:57:11.209Z,25.00
2018-09-19T08:59:39.309Z,24.90
2018-09-19T09:02:07.151Z,24.90
2018-09-19T09:04:35.329Z,24.90
2018-09-19T09:07:03.548Z,25.10
2018-09-19T09:09:31.649Z,25.20
2018-09-19T09:11:59.815Z,25.20
2018-09-19T09:14:28.011Z,25.20
2018-09-19T09:16:56.098Z,25.30
2018-09-19T09:19:24.219Z,25.50
2018-09-19T09:21:52.384Z,25.80
2018-09-19T09:24:20.945Z,26.00
2018-09-19T09:26:49.092Z,26.10
2018-09-19T09:29:17.175Z,26.20
2018-09-19T09:31:45.284Z,26.30
2018-09-19T09:34:13.452Z,26.40
2018-09-19T09:36:41.553Z,26.40
2018-09-19T09:39:09.614Z,26.60
2018-09-19T09:41:37.709Z,26.80
2018-09-19T09:44:05.916Z,26.90
2018-09-19T09:46:33.994Z,27.00
2018-09-19T09:49:02.094Z,27.20
2018-09-19T09:51:30.592Z,27.30
2018-09-19T09:53:58.718Z,27.50
2018-09-19T09:56:26.818Z,27.60
2018-09-19T09:58:55.836Z,27.70
2018-09-19T10:01:24.041Z,27.70
2018-09-19T10:03:52.126Z,27.90
2018-09-19T10:06:20.251Z,28.00
2018-09-19T10:08:48.443Z,28.10
2018-09-19T10:11:16.606Z,28.10
2018-09-19T10:13:44.772Z,28.20
2018-09-19T10:16:12.856Z,28.30
2018-09-19T10:18:40.937Z,28.40
2018-09-19T10:21:09.039Z,28.60
2018-09-19T10:23:37.127Z,28.60
2018-09-19T10:26:05.226Z,29.00
2018-09-19T10:28:33.409Z,29.20
2018-09-19T10:31:01.530Z,29.40
2018-09-19T10:33:29.625Z,29.50
2018-09-19T10:35:57.766Z,29.40
2018-09-19T10:38:25.849Z,29.60
2018-09-19T10:40:53.939Z,29.80
2018-09-19T10:43:22.086Z,29.60
2018-09-19T10:45:50.179Z,29.40
2018-09-19T10:48:18.278Z,29.40
2018-09-19T10:50:46.413Z,29.00
2018-09-19T10:53:14.575Z,29.10
2018-09-19T10:55:42.682Z,29.10
2018-09-19T10:58:10.808Z,29.20
2018-09-19T11:00:38.922Z,29.20
2018-09-19T11:03:07.021Z,29.30
2018-09-19T11:05:35.113Z,29.40
2018-09-19T11:08:03.194Z,29.30
2018-09-19T11:10:31.290Z,29.10
2018-09-19T11:12:59.400Z,29.10
2018-09-19T11:15:27.497Z,29.30
2018-09-19T11:17:55.591Z,29.30
2018-09-19T11:20:23.906Z,29.30
2018-09-19T11:22:52.001Z,29.40
2018-09-19T11:25:20.212Z,29.40
2018-09-19T11:27:48.337Z,29.50
2018-09-19T11:30:16.426Z,29.50
2018-09-19T11:32:44.556Z,29.60
2018-09-19T11:35:12.660Z,29.50
2018-09-19T11:37:40.766Z,29.40
2018-09-19T11:40:08.889Z,29.40
2018-09-19T11:42:37.017Z,29.40
2018-09-19T11:45:05.180Z,29.40
2018-09-19T11:47:33.299Z,29.40
2018-09-19T11:50:01.399Z,29.50
2018-09-19T11:52:29.582Z,29.50
2018-09-19T11:54:57.692Z,29.60
2018-09-19T11:57:35.954Z,29.80
2018-09-19T12:00:04.127Z,29.70
2018-09-19T12:02:32.243Z,29.60
2018-09-19T12:05:00.411Z,29.70
2018-09-19T12:07:28.522Z,29.80
2018-09-19T12:09:56.723Z,29.50
2018-09-19T12:12:24.842Z,29.50
2018-09-19T12:14:52.943Z,29.70
2018-09-19T12:17:21.218Z,29.90
2018-09-19T12:19:49.429Z,29.80
2018-09-19T12:22:17.528Z,29.80
2018-09-19T12:24:46.594Z,29.70
2018-09-19T12:27:14.700Z,29.60
2018-09-19T12:29:42.807Z,29.80
2018-09-19T12:32:10.998Z,29.90
2018-09-19T12:34:39.179Z,29.90
2018-09-19T12:37:07.285Z,29.90
2018-09-19T12:39:35.416Z,29.90
2018-09-19T12:42:03.498Z,29.80
2018-09-19T12:44:31.626Z,29.80
2018-09-19T12:46:59.840Z,29.70
2018-09-19T12:49:27.950Z,29.80
2018-09-19T12:51:56.096Z,29.90
2018-09-19T12:54:24.194Z,29.50
2018-09-19T12:56:52.290Z,29.20
2018-09-19T12:59:20.400Z,29.30
2018-09-19T13:01:48.574Z,29.30
2018-09-19T13:04:16.712Z,29.40
2018-09-19T13:06:44.853Z,29.60
2018-09-19T13:09:12.954Z,29.80
2018-09-19T13:11:41.414Z,29.90
2018-09-19T13:14:09.639Z,30.00
2018-09-19T13:16:37.764Z,29.90
2018-09-19T13:19:05.850Z,30.00
2018-09-19T13:21:33.958Z,30.20
2018-09-19T13:24:02.156Z,30.30
2018-09-19T13:26:30.304Z,30.40
2018-09-19T13:28:58.441Z,30.40
2018-09-19T13:31:26.538Z,30.50
2018-09-19T13:33:54.641Z,30.50
2018-09-19T13:36:22.772Z,30.20
2018-09-19T13:38:50.868Z,30.20
2018-09-19T13:41:19.097Z,30.10
2018-09-19T13:43:48.087Z,30.10
2018-09-19T13:46:16.256Z,30.20
2018-09-19T13:48:47.368Z,30.30
2018-09-19T13:51:19.125Z,30.20
2018-09-19T13:53:47.238Z,30.20
2018-09-19T13:56:15.362Z,30.30
2018-09-19T13:58:43.577Z,30.50
2018-09-19T14:01:12.043Z,30.40
2018-09-19T14:03:40.139Z,30.20
2018-09-19T14:06:08.442Z,30.10
2018-09-19T14:08:36.667Z,30.00
2018-09-19T14:11:04.819Z,29.90
2018-09-19T14:13:33.041Z,29.90
2018-09-19T14:16:01.151Z,29.90
2018-09-19T14:18:29.471Z,29.90
2018-09-19T14:20:57.575Z,29.70
2018-09-19T14:23:25.666Z,29.60
2018-09-19T14:25:53.798Z,29.50
2018-09-19T14:28:22.022Z,29.40
2018-09-19T14:30:50.100Z,29.40
2018-09-19T14:33:18.226Z,29.40
2018-09-19T14:35:46.409Z,29.50
2018-09-19T14:38:14.478Z,29.50
2018-09-19T14:40:42.582Z,29.60
2018-09-19T14:43:10.703Z,29.70
2018-09-19T14:45:57.782Z,29.80
2018-09-19T14:48:25.910Z,29.60
2018-09-19T14:50:53.989Z,29.50
2018-09-19T14:53:22.085Z,29.30
2018-09-19T14:55:50.298Z,29.30
2018-09-19T14:58:18.434Z,29.30
2018-09-19T15:00:46.588Z,29.20
2018-09-19T15:03:14.730Z,29.20
2018-09-19T15:05:42.946Z,29.20
2018-09-19T15:08:11.047Z,29.20
2018-09-19T15:10:39.147Z,29.10
2018-09-19T15:13:07.267Z,29.10
2018-09-19T15:15:35.391Z,29.20
2018-09-19T15:18:03.835Z,29.20
2018-09-19T15:20:32.041Z,29.30
2018-09-19T15:23:00.442Z,29.10
2018-09-19T15:25:28.671Z,29.10
2018-09-19T15:27:56.778Z,29.10
2018-09-19T15:30:24.906Z,29.10
2018-09-19T15:32:53.071Z,29.00
2018-09-19T15:35:21.176Z,29.00
2018-09-19T15:37:49.276Z,28.80
2018-09-19T15:40:17.385Z,28.90
2018-09-19T15:42:45.507Z,29.00
2018-09-19T15:45:13.605Z,28.90
2018-09-19T15:47:41.701Z,28.90
2018-09-19T15:50:09.838Z,28.80
2018-09-19T15:52:37.979Z,28.80
2018-09-19T15:55:06.100Z,28.70
2018-09-19T15:57:34.229Z,28.60
2018-09-19T16:00:02.336Z,28.60
2018-09-19T16:02:30.786Z,28.60
2018-09-19T16:04:58.921Z,28.60
2018-09-19T16:07:27.032Z,28.50
2018-09-19T16:09:55.135Z,28.50
2018-09-19T16:12:23.245Z,28.40
2018-09-19T16:14:51.352Z,28.30
2018-09-19T16:17:19.448Z,28.30
2018-09-19T16:19:47.536Z,28.20
2018-09-19T16:22:15.630Z,28.20
2018-09-19T16:24:43.757Z,28.10
2018-09-19T16:27:11.904Z,28.20
2018-09-19T16:29:40.021Z,28.00
2018-09-19T16:32:08.103Z,28.00
2018-09-19T16:34:36.287Z,27.90
2018-09-19T16:37:04.400Z,27.80
2018-09-19T16:39:32.842Z,27.80
2018-09-19T16:42:00.953Z,27.80
2018-09-19T16:44:29.122Z,27.80
2018-09-19T16:46:57.599Z,27.90
2018-09-19T16:49:25.724Z,27.80
2018-09-19T16:51:53.835Z,27.80
2018-09-19T16:54:21.952Z,27.90
2018-09-19T16:56:50.097Z,27.70
2018-09-19T16:59:18.205Z,27.70
2018-09-19T17:01:46.311Z,27.70
2018-09-19T17:04:14.438Z,27.60
2018-09-19T17:06:42.629Z,27.50
2018-09-19T17:09:10.744Z,27.50
2018-09-19T17:11:38.839Z,27.40
2018-09-19T17:14:07.010Z,27.40
2018-09-19T17:16:35.185Z,27.40
2018-09-19T17:19:03.587Z,27.40
2018-09-19T17:21:31.715Z,27.40
2018-09-19T17:23:59.935Z,27.20
2018-09-19T17:26:28.227Z,27.20
2018-09-19T17:28:56.353Z,27.10
2018-09-19T17:31:24.476Z,27.10
2018-09-19T17:33:52.643Z,27.00
2018-09-19T17:36:20.776Z,27.10
2018-09-19T17:38:48.940Z,27.00
2018-09-19T17:41:17.092Z,26.90
2018-09-19T17:43:45.259Z,26.80
2018-09-19T17:46:13.403Z,26.80
2018-09-19T17:48:41.666Z,26.90
2018-09-19T17:51:09.781Z,26.90
2018-09-19T17:53:38.028Z,27.00
2018-09-19T17:56:06.201Z,26.90
2018-09-19T17:58:34.302Z,26.90
2018-09-19T18:01:02.439Z,26.80
2018-09-19T18:03:30.545Z,26.80
2018-09-19T18:05:58.686Z,26.60
2018-09-19T18:08:26.832Z,26.60
2018-09-19T18:10:54.969Z,26.50
2018-09-19T18:13:23.159Z,26.30
2018-09-19T18:15:51.284Z,26.30
2018-09-19T18:18:19.384Z,26.20
2018-09-19T18:20:47.516Z,26.10
2018-09-19T18:23:15.616Z,26.00
2018-09-19T18:25:43.724Z,25.90
2018-09-19T18:28:11.826Z,25.80
2018-09-19T18:30:39.951Z,25.80
2018-09-19T18:33:08.080Z,25.70
2018-09-19T18:35:36.216Z,25.50
2018-09-19T18:38:04.338Z,25.40
2018-09-19T18:40:32.636Z,25.30
2018-09-19T18:43:00.725Z,25.20
2018-09-19T18:45:28.857Z,25.10
2018-09-19T18:47:56.944Z,25.00
2018-09-19T18:50:25.071Z,24.90
2018-09-19T18:52:53.181Z,24.70
2018-09-19T18:55:21.282Z,24.70
2018-09-19T18:57:49.382Z,24.60
2018-09-19T19:00:17.574Z,24.50
2018-09-19T19:02:45.669Z,24.40
2018-09-19T19:05:13.773Z,24.30
2018-09-19T19:07:41.880Z,24.30
2018-09-19T19:10:09.985Z,24.20
2018-09-19T19:12:38.126Z,24.20
2018-09-19T19:15:06.325Z,24.10
2018-09-19T19:17:34.436Z,24.00
2018-09-19T19:20:02.591Z,24.00
2018-09-19T19:22:30.786Z,23.90
2018-09-19T19:24:58.960Z,23.90
2018-09-19T19:27:27.118Z,23.70
2018-09-19T19:29:55.295Z,23.60
2018-09-19T19:32:23.560Z,23.60
2018-09-19T19:34:51.715Z,23.50
2018-09-19T19:37:19.831Z,23.40
2018-09-19T19:39:47.942Z,23.40
2018-09-19T19:42:16.067Z,23.40
2018-09-19T19:44:44.253Z,23.30
2018-09-19T19:47:12.336Z,23.20
2018-09-19T19:49:40.452Z,23.20
2018-09-19T19:52:08.559Z,23.10
2018-09-19T19:54:36.717Z,23.10
2018-09-19T19:57:04.930Z,23.00
2018-09-19T19:59:33.111Z,22.90
2018-09-19T20:02:01.328Z,22.90
2018-09-19T20:04:29.521Z,22.90
2018-09-19T20:06:57.692Z,22.90
2018-09-19T20:09:25.889Z,22.80
2018-09-19T20:11:54.069Z,22.70
2018-09-19T20:14:22.175Z,22.60
2018-09-19T20:16:50.352Z,22.50
2018-09-19T20:19:18.456Z,22.50
2018-09-19T20:21:46.620Z,22.50
2018-09-19T20:24:14.806Z,22.40
2018-09-19T20:26:43.013Z,22.30
2018-09-19T20:29:11.131Z,22.30
2018-09-19T20:31:39.291Z,22.20
2018-09-19T20:34:07.414Z,22.20
2018-09-19T20:36:35.573Z,21.90
2018-09-19T20:39:04.648Z,21.90
2018-09-19T20:41:32.794Z,22.00
2018-09-19T20:44:00.903Z,21.90
2018-09-19T20:46:29.011Z,21.80
2018-09-19T20:48:57.135Z,21.80
2018-09-19T20:51:25.235Z,21.70
2018-09-19T20:53:53.334Z,21.70
2018-09-19T20:56:21.431Z,21.70
2018-09-19T20:58:49.529Z,21.60
2018-09-19T21:01:17.755Z,21.60
2018-09-19T21:03:45.936Z,21.50
2018-09-19T21:06:14.042Z,21.50
2018-09-19T21:08:42.207Z,21.40
2018-09-19T21:11:10.344Z,21.30
2018-09-19T21:13:38.440Z,21.30
2018-09-19T21:16:06.604Z,21.20
2018-09-19T21:18:34.711Z,21.20
2018-09-19T21:21:02.896Z,21.20
2018-09-19T21:23:30.980Z,21.10
2018-09-19T21:25:59.312Z,21.10
2018-09-19T21:28:27.452Z,21.00
2018-09-19T21:30:55.648Z,20.90
2018-09-19T21:33:23.756Z,20.90
2018-09-19T21:35:51.887Z,20.90
2018-09-19T21:38:20.058Z,20.90
2018-09-19T21:40:48.291Z,20.80
2018-09-19T21:43:16.408Z,20.80
2018-09-19T21:45:44.532Z,20.70
2018-09-19T21:48:13.370Z,20.70
2018-09-19T21:50:41.768Z,20.70
2018-09-19T21:53:09.915Z,20.60
2018-09-19T21:55:39.639Z,20.50
2018-09-19T21:58:07.739Z,20.50
2018-09-19T22:00:35.876Z,20.50
2018-09-19T22:03:03.963Z,20.40
2018-09-19T22:05:32.076Z,20.40
2018-09-19T22:08:00.174Z,20.30
2018-09-19T22:10:28.792Z,20.30
2018-09-19T22:12:56.895Z,20.30
2018-09-19T22:15:24.992Z,20.30
2018-09-19T22:17:53.227Z,20.30
2018-09-19T22:20:21.423Z,20.40
2018-09-19T22:22:49.532Z,20.40
2018-09-19T22:25:17.728Z,20.30
2018-09-19T22:27:45.843Z,20.10
2018-09-19T22:30:14.067Z,20.10
2018-09-19T22:32:42.251Z,20.20
2018-09-19T22:35:10.360Z,20.30
2018-09-19T22:37:38.485Z,20.40
2018-09-19T22:40:06.595Z,20.40
2018-09-19T22:42:35.014Z,20.30
2018-09-19T22:45:03.373Z,20.30
2018-09-19T22:47:31.494Z,20.30
2018-09-19T22:49:59.704Z,20.30
2018-09-19T22:52:27.855Z,20.20
2018-09-19T22:54:55.959Z,20.20
2018-09-19T22:57:24.067Z,20.20
2018-09-19T22:59:52.168Z,20.30
2018-09-19T23:02:20.301Z,20.30
2018-09-19T23:04:48.455Z,20.30
2018-09-19T23:07:16.571Z,20.40
2018-09-19T23:09:45.191Z,20.50
2018-09-19T23:12:13.330Z,20.50
2018-09-19T23:14:41.612Z,20.50
2018-09-19T23:17:09.749Z,20.50
2018-09-19T23:19:37.898Z,20.50
2018-09-19T23:22:06.099Z,20.60
2018-09-19T23:24:34.221Z,20.60
2018-09-19T23:27:02.342Z,20.70
2018-09-19T23:29:30.436Z,20.70
2018-09-19T23:31:58.617Z,20.80
2018-09-19T23:34:26.692Z,20.90
2018-09-19T23:36:54.839Z,21.00
2018-09-19T23:39:22.948Z,21.00
2018-09-19T23:41:51.207Z,21.10
2018-09-19T23:44:19.366Z,21.10
2018-09-19T23:46:47.471Z,21.10
2018-09-19T23:49:15.582Z,21.10
2018-09-19T23:51:43.690Z,21.10
2018-09-19T23:54:11.790Z,21.00
2018-09-19T23:56:39.882Z,21.00
2018-09-19T23:59:07.995Z,21.00
